sensor_id;sensor_type;location;lat;lon;timestamp;pressure;altitude;pressure_sealevel;temperature;humidity
39487;BME280;25173;50.430;18.926;2023-01-10T00:00:11;97303.66;;;9.14;68.08
39487;BME280;25173;50.430;18.926;2023-01-10T00:03:12;97304.84;;;9.03;68.26
39487;BME280;25173;50.430;18.926;2023-01-10T00:06:13;97308.72;;;8.91;68.53
39487;BME280;25173;50.430;18.926;2023-01-10T00:09:14;97313.13;;;8.87;68.57
39487;BME280;25173;50.430;18.926;2023-01-10T00:12:14;97313.13;;;8.82;68.77
39487;BME280;25173;50.430;18.926;2023-01-10T00:15:35;97318.91;;;8.76;68.84
39487;BME280;25173;50.430;18.926;2023-01-10T00:18:36;97317.03;;;8.71;69.06
39487;BME280;25173;50.430;18.926;2023-01-10T00:21:37;97314.88;;;8.68;69.09
39487;BME280;25173;50.430;18.926;2023-01-10T00:24:38;97325.78;;;8.63;69.39
39487;BME280;25173;50.430;18.926;2023-01-10T00:27:41;97317.38;;;8.60;69.14
39487;BME280;25173;50.430;18.926;2023-01-10T00:30:52;97330.41;;;8.63;69.29
39487;BME280;25173;50.430;18.926;2023-01-10T00:34:00;97324.16;;;8.62;69.15
39487;BME280;25173;50.430;18.926;2023-01-10T00:37:00;97341.25;;;8.63;69.16
39487;BME280;25173;50.430;18.926;2023-01-10T00:40:01;97335.00;;;8.62;69.23
39487;BME280;25173;50.430;18.926;2023-01-10T00:43:02;97339.06;;;8.65;69.00
39487;BME280;25173;50.430;18.926;2023-01-10T00:46:21;97339.88;;;8.65;69.28
39487;BME280;25173;50.430;18.926;2023-01-10T00:49:22;97351.78;;;8.74;69.23
39487;BME280;25173;50.430;18.926;2023-01-10T00:52:22;97356.34;;;8.79;69.04
39487;BME280;25173;50.430;18.926;2023-01-10T00:55:23;97356.31;;;8.84;69.00
39487;BME280;25173;50.430;18.926;2023-01-10T00:58:24;97360.91;;;8.83;68.92
39487;BME280;25173;50.430;18.926;2023-01-10T01:01:24;97367.44;;;8.82;68.92
39487;BME280;25173;50.430;18.926;2023-01-10T01:04:25;97375.00;;;8.90;68.88
39487;BME280;25173;50.430;18.926;2023-01-10T01:07:25;97369.00;;;8.93;68.83
39487;BME280;25173;50.430;18.926;2023-01-10T01:10:26;97373.34;;;8.94;68.89
39487;BME280;25173;50.430;18.926;2023-01-10T01:13:27;97387.16;;;8.98;68.98
39487;BME280;25173;50.430;18.926;2023-01-10T01:16:27;97384.97;;;9.00;68.78
39487;BME280;25173;50.430;18.926;2023-01-10T01:19:28;97385.84;;;8.95;68.85
39487;BME280;25173;50.430;18.926;2023-01-10T01:22:29;97385.53;;;8.97;68.84
39487;BME280;25173;50.430;18.926;2023-01-10T01:25:30;97390.13;;;9.02;68.85
39487;BME280;25173;50.430;18.926;2023-01-10T01:28:31;97389.03;;;9.03;68.82
39487;BME280;25173;50.430;18.926;2023-01-10T01:31:31;97389.31;;;9.01;68.82
39487;BME280;25173;50.430;18.926;2023-01-10T01:34:32;97392.84;;;9.02;68.93
39487;BME280;25173;50.430;18.926;2023-01-10T01:37:32;97407.47;;;9.06;68.98
39487;BME280;25173;50.430;18.926;2023-01-10T01:40:33;97404.75;;;9.06;68.86
39487;BME280;25173;50.430;18.926;2023-01-10T01:44:01;97405.56;;;9.06;69.11
39487;BME280;25173;50.430;18.926;2023-01-10T01:47:10;97412.34;;;9.09;69.13
39487;BME280;25173;50.430;18.926;2023-01-10T01:50:24;97403.38;;;9.08;69.04
39487;BME280;25173;50.430;18.926;2023-01-10T01:53:33;97402.84;;;9.11;69.18
39487;BME280;25173;50.430;18.926;2023-01-10T01:57:02;97410.59;;;9.23;69.10
39487;BME280;25173;50.430;18.926;2023-01-10T02:00:05;97403.47;;;9.32;69.03
39487;BME280;25173;50.430;18.926;2023-01-10T02:03:12;97403.97;;;9.39;68.78
39487;BME280;25173;50.430;18.926;2023-01-10T02:06:15;97407.97;;;9.47;68.78
39487;BME280;25173;50.430;18.926;2023-01-10T02:09:36;97408.78;;;9.47;68.48
39487;BME280;25173;50.430;18.926;2023-01-10T02:12:38;97402.25;;;9.48;68.70
39487;BME280;25173;50.430;18.926;2023-01-10T02:15:39;97409.59;;;9.48;68.63
39487;BME280;25173;50.430;18.926;2023-01-10T02:18:41;97417.88;;;9.32;68.57
39487;BME280;25173;50.430;18.926;2023-01-10T02:35:20;97425.34;;;9.12;69.10
39487;BME280;25173;50.430;18.926;2023-01-10T02:38:45;97426.16;;;9.12;69.14
39487;BME280;25173;50.430;18.926;2023-01-10T02:41:56;97425.88;;;9.14;69.39
39487;BME280;25173;50.430;18.926;2023-01-10T02:45:05;97433.47;;;9.17;69.19
39487;BME280;25173;50.430;18.926;2023-01-10T02:48:09;97434.53;;;9.21;69.30
39487;BME280;25173;50.430;18.926;2023-01-10T02:51:17;97442.59;;;9.31;69.05
39487;BME280;25173;50.430;18.926;2023-01-10T02:54:22;97441.25;;;9.28;68.88
39487;BME280;25173;50.430;18.926;2023-01-10T02:57:30;97445.88;;;9.28;68.94
39487;BME280;25173;50.430;18.926;2023-01-10T03:00:44;97455.09;;;9.32;68.98
39487;BME280;25173;50.430;18.926;2023-01-10T03:04:27;97455.06;;;9.37;69.02
39487;BME280;25173;50.430;18.926;2023-01-10T03:07:42;97458.78;;;9.46;68.93
39487;BME280;25173;50.430;18.926;2023-01-10T03:10:51;97463.56;;;9.59;68.86
39487;BME280;25173;50.430;18.926;2023-01-10T03:13:59;97475.75;;;9.67;68.54
39487;BME280;25173;50.430;18.926;2023-01-10T03:17:08;97476.50;;;9.72;68.38
39487;BME280;25173;50.430;18.926;2023-01-10T03:20:10;97478.66;;;9.76;68.36
39487;BME280;25173;50.430;18.926;2023-01-10T03:23:12;97482.41;;;9.85;68.21
39487;BME280;25173;50.430;18.926;2023-01-10T03:26:16;97481.25;;;9.91;68.11
39487;BME280;25173;50.430;18.926;2023-01-10T03:29:25;97495.31;;;9.98;67.96
39487;BME280;25173;50.430;18.926;2023-01-10T03:32:29;97494.16;;;10.04;67.83
39487;BME280;25173;50.430;18.926;2023-01-10T03:35:37;97502.00;;;10.10;67.71
39487;BME280;25173;50.430;18.926;2023-01-10T03:38:51;97510.69;;;10.12;67.48
39487;BME280;25173;50.430;18.926;2023-01-10T03:45:13;97528.97;;;10.07;67.35
39487;BME280;25173;50.430;18.926;2023-01-10T03:48:16;97537.44;;;10.00;67.42
39487;BME280;25173;50.430;18.926;2023-01-10T03:51:17;97538.31;;;9.96;67.47
39487;BME280;25173;50.430;18.926;2023-01-10T03:54:19;97542.72;;;9.92;67.44
39487;BME280;25173;50.430;18.926;2023-01-10T03:57:21;97547.34;;;9.86;67.60
39487;BME280;25173;50.430;18.926;2023-01-10T04:00:23;97557.19;;;9.82;67.59
39487;BME280;25173;50.430;18.926;2023-01-10T04:03:25;97559.91;;;9.82;67.69
39487;BME280;25173;50.430;18.926;2023-01-10T04:06:26;97573.25;;;9.79;67.80
39487;BME280;25173;50.430;18.926;2023-01-10T04:09:26;97572.16;;;9.80;67.98
39487;BME280;25173;50.430;18.926;2023-01-10T04:12:27;97577.03;;;9.83;67.89
39487;BME280;25173;50.430;18.926;2023-01-10T04:15:28;97576.44;;;9.86;67.89
39487;BME280;25173;50.430;18.926;2023-01-10T04:18:29;97585.97;;;9.88;67.79
39487;BME280;25173;50.430;18.926;2023-01-10T04:21:29;97587.38;;;9.81;67.75
39487;BME280;25173;50.430;18.926;2023-01-10T04:24:30;97589.06;;;9.77;67.83
39487;BME280;25173;50.430;18.926;2023-01-10T04:27:31;97589.06;;;9.71;67.93
39487;BME280;25173;50.430;18.926;2023-01-10T04:30:32;97597.00;;;9.68;67.96
39487;BME280;25173;50.430;18.926;2023-01-10T04:33:32;97604.94;;;9.59;68.05
39487;BME280;25173;50.430;18.926;2023-01-10T04:36:33;97599.25;;;9.51;68.24
39487;BME280;25173;50.430;18.926;2023-01-10T04:39:34;97613.72;;;9.46;68.43
39487;BME280;25173;50.430;18.926;2023-01-10T04:42:35;97618.59;;;9.44;68.55
39487;BME280;25173;50.430;18.926;2023-01-10T04:45:36;97622.72;;;9.37;68.59
39487;BME280;25173;50.430;18.926;2023-01-10T04:48:37;97615.19;;;9.23;68.82
39487;BME280;25173;50.430;18.926;2023-01-10T04:51:37;97614.13;;;9.14;69.04
39487;BME280;25173;50.430;18.926;2023-01-10T04:54:38;97631.81;;;9.07;69.18
39487;BME280;25173;50.430;18.926;2023-01-10T04:57:39;97631.84;;;8.91;69.21
39487;BME280;25173;50.430;18.926;2023-01-10T05:00:40;97638.72;;;8.69;69.70
39487;BME280;25173;50.430;18.926;2023-01-10T05:03:45;97643.88;;;8.45;70.13
39487;BME280;25173;50.430;18.926;2023-01-10T05:06:49;97637.38;;;8.26;70.90
39487;BME280;25173;50.430;18.926;2023-01-10T05:09:51;97649.31;;;8.19;71.16
39487;BME280;25173;50.430;18.926;2023-01-10T05:13:11;97654.19;;;8.17;71.22
39487;BME280;25173;50.430;18.926;2023-01-10T05:16:13;97658.00;;;8.06;71.45
39487;BME280;25173;50.430;18.926;2023-01-10T05:19:23;97661.22;;;8.03;71.65
39487;BME280;25173;50.430;18.926;2023-01-10T05:22:27;97668.81;;;7.96;71.91
39487;BME280;25173;50.430;18.926;2023-01-10T05:25:28;97672.88;;;7.89;72.22
39487;BME280;25173;50.430;18.926;2023-01-10T05:28:29;97675.84;;;7.82;72.50
39487;BME280;25173;50.430;18.926;2023-01-10T05:31:29;97685.88;;;7.76;72.65
39487;BME280;25173;50.430;18.926;2023-01-10T05:34:30;97693.16;;;7.71;72.78
39487;BME280;25173;50.430;18.926;2023-01-10T05:37:30;97692.59;;;7.64;73.09
39487;BME280;25173;50.430;18.926;2023-01-10T05:40:31;97694.53;;;7.68;73.37
39487;BME280;25173;50.430;18.926;2023-01-10T05:43:32;97705.09;;;7.75;73.16
39487;BME280;25173;50.430;18.926;2023-01-10T05:46:33;97706.75;;;7.76;73.14
39487;BME280;25173;50.430;18.926;2023-01-10T05:49:33;97715.44;;;7.83;73.21
39487;BME280;25173;50.430;18.926;2023-01-10T05:52:34;97715.16;;;7.85;73.17
39487;BME280;25173;50.430;18.926;2023-01-10T05:55:35;97719.78;;;7.84;73.13
39487;BME280;25173;50.430;18.926;2023-01-10T05:58:36;97724.66;;;7.87;73.33
39487;BME280;25173;50.430;18.926;2023-01-10T06:01:36;97728.47;;;7.91;73.16
39487;BME280;25173;50.430;18.926;2023-01-10T06:04:37;97739.84;;;7.93;73.04
39487;BME280;25173;50.430;18.926;2023-01-10T06:07:37;97742.56;;;7.93;73.07
39487;BME280;25173;50.430;18.926;2023-01-10T06:10:38;97733.88;;;7.91;73.10
39487;BME280;25173;50.430;18.926;2023-01-10T06:13:39;97739.28;;;7.86;73.08
39487;BME280;25173;50.430;18.926;2023-01-10T06:16:39;97735.75;;;7.80;73.31
39487;BME280;25173;50.430;18.926;2023-01-10T06:19:41;97740.34;;;7.80;73.23
39487;BME280;25173;50.430;18.926;2023-01-10T06:22:42;97752.81;;;7.81;73.35
39487;BME280;25173;50.430;18.926;2023-01-10T06:25:42;97760.44;;;7.84;73.25
39487;BME280;25173;50.430;18.926;2023-01-10T06:28:43;97764.78;;;7.85;73.01
39487;BME280;25173;50.430;18.926;2023-01-10T06:31:44;97762.34;;;7.84;73.03
39487;BME280;25173;50.430;18.926;2023-01-10T06:34:44;97772.34;;;7.83;73.13
39487;BME280;25173;50.430;18.926;2023-01-10T06:37:45;97777.22;;;7.86;73.12
39487;BME280;25173;50.430;18.926;2023-01-10T06:40:45;97788.06;;;7.81;73.04
39487;BME280;25173;50.430;18.926;2023-01-10T06:43:48;97794.03;;;7.78;73.28
39487;BME280;25173;50.430;18.926;2023-01-10T06:46:48;97792.66;;;7.75;73.42
39487;BME280;25173;50.430;18.926;2023-01-10T06:49:49;97803.75;;;7.74;73.55
39487;BME280;25173;50.430;18.926;2023-01-10T06:52:57;97804.31;;;7.76;73.67
39487;BME280;25173;50.430;18.926;2023-01-10T06:55:58;97819.53;;;7.82;73.76
39487;BME280;25173;50.430;18.926;2023-01-10T06:58:59;97815.72;;;7.83;73.71
39487;BME280;25173;50.430;18.926;2023-01-10T07:01:59;97825.50;;;7.84;73.69
39487;BME280;25173;50.430;18.926;2023-01-10T07:05:00;97827.91;;;7.86;73.83
39487;BME280;25173;50.430;18.926;2023-01-10T07:08:01;97837.19;;;7.90;73.96
39487;BME280;25173;50.430;18.926;2023-01-10T07:11:01;97841.78;;;7.89;73.80
39487;BME280;25173;50.430;18.926;2023-01-10T07:14:02;97852.06;;;7.87;73.97
39487;BME280;25173;50.430;18.926;2023-01-10T07:17:03;97849.94;;;7.94;74.15
39487;BME280;25173;50.430;18.926;2023-01-10T07:20:04;97852.94;;;7.98;73.91
39487;BME280;25173;50.430;18.926;2023-01-10T07:23:04;97855.66;;;7.98;74.04
39487;BME280;25173;50.430;18.926;2023-01-10T07:26:10;97853.75;;;7.98;73.94
39487;BME280;25173;50.430;18.926;2023-01-10T07:29:10;97856.97;;;7.95;74.17
39487;BME280;25173;50.430;18.926;2023-01-10T07:32:11;97853.75;;;7.98;74.09
39487;BME280;25173;50.430;18.926;2023-01-10T07:35:12;97854.28;;;8.00;74.02
39487;BME280;25173;50.430;18.926;2023-01-10T07:38:12;97853.75;;;7.98;74.02
39487;BME280;25173;50.430;18.926;2023-01-10T07:41:13;97857.81;;;7.96;74.08
39487;BME280;25173;50.430;18.926;2023-01-10T07:44:14;97865.38;;;7.94;74.29
39487;BME280;25173;50.430;18.926;2023-01-10T07:47:14;97867.28;;;7.93;74.46
39487;BME280;25173;50.430;18.926;2023-01-10T07:50:15;97876.78;;;7.91;74.48
39487;BME280;25173;50.430;18.926;2023-01-10T07:53:16;97873.25;;;7.90;74.46
39487;BME280;25173;50.430;18.926;2023-01-10T07:56:17;97866.44;;;7.88;74.45
39487;BME280;25173;50.430;18.926;2023-01-10T07:59:17;97868.63;;;7.91;74.73
39487;BME280;25173;50.430;18.926;2023-01-10T08:02:18;97878.94;;;7.94;74.84
39487;BME280;25173;50.430;18.926;2023-01-10T08:05:19;97878.69;;;7.95;74.73
39487;BME280;25173;50.430;18.926;2023-01-10T08:08:20;97890.06;;;7.92;74.91
39487;BME280;25173;50.430;18.926;2023-01-10T08:11:20;97889.53;;;7.95;74.96
39487;BME280;25173;50.430;18.926;2023-01-10T08:14:21;97881.41;;;8.00;74.85
39487;BME280;25173;50.430;18.926;2023-01-10T08:17:21;97885.47;;;7.98;74.72
39487;BME280;25173;50.430;18.926;2023-01-10T08:20:22;97893.84;;;7.91;75.00
39487;BME280;25173;50.430;18.926;2023-01-10T08:23:23;97907.72;;;8.00;75.16
39487;BME280;25173;50.430;18.926;2023-01-10T08:26:23;97912.63;;;8.03;74.94
39487;BME280;25173;50.430;18.926;2023-01-10T08:29:24;97914.75;;;8.01;74.93
39487;BME280;25173;50.430;18.926;2023-01-10T08:32:25;97921.53;;;7.98;74.96
39487;BME280;25173;50.430;18.926;2023-01-10T08:35:25;97921.47;;;7.88;75.15
39487;BME280;25173;50.430;18.926;2023-01-10T08:38:27;97918.19;;;7.81;75.32
39487;BME280;25173;50.430;18.926;2023-01-10T08:41:27;97931.16;;;7.74;75.58
39487;BME280;25173;50.430;18.926;2023-01-10T08:44:28;97925.72;;;7.74;75.73
39487;BME280;25173;50.430;18.926;2023-01-10T08:47:29;97937.13;;;7.76;75.81
39487;BME280;25173;50.430;18.926;2023-01-10T08:50:30;97935.19;;;7.71;75.92
39487;BME280;25173;50.430;18.926;2023-01-10T08:53:31;97925.66;;;7.64;75.98
39487;BME280;25173;50.430;18.926;2023-01-10T08:56:32;97933.25;;;7.62;76.36
39487;BME280;25173;50.430;18.926;2023-01-10T08:59:32;97944.91;;;7.62;76.47
39487;BME280;25173;50.430;18.926;2023-01-10T09:02:33;97955.53;;;7.69;76.40
39487;BME280;25173;50.430;18.926;2023-01-10T09:05:33;97956.56;;;7.63;76.38
39487;BME280;25173;50.430;18.926;2023-01-10T09:08:34;97956.56;;;7.63;76.51
39487;BME280;25173;50.430;18.926;2023-01-10T09:11:35;97971.69;;;7.59;76.53
39487;BME280;25173;50.430;18.926;2023-01-10T09:14:36;97976.63;;;7.62;76.60
39487;BME280;25173;50.430;18.926;2023-01-10T09:17:36;97978.78;;;7.65;76.60
39487;BME280;25173;50.430;18.926;2023-01-10T09:20:39;97979.34;;;7.67;76.55
39487;BME280;25173;50.430;18.926;2023-01-10T09:23:40;97990.78;;;7.74;76.52
39487;BME280;25173;50.430;18.926;2023-01-10T09:26:42;97994.34;;;7.79;76.40
39487;BME280;25173;50.430;18.926;2023-01-10T09:29:44;98006.81;;;7.75;76.45
39487;BME280;25173;50.430;18.926;2023-01-10T09:32:49;98015.28;;;7.84;76.72
39487;BME280;25173;50.430;18.926;2023-01-10T09:35:50;98006.84;;;7.86;76.43
39487;BME280;25173;50.430;18.926;2023-01-10T09:38:51;98004.44;;;7.84;76.34
39487;BME280;25173;50.430;18.926;2023-01-10T09:48:50;98018.50;;;7.81;77.05
39487;BME280;25173;50.430;18.926;2023-01-10T09:51:55;98017.97;;;7.84;76.84
39487;BME280;25173;50.430;18.926;2023-01-10T09:54:57;98013.88;;;7.82;77.20
39487;BME280;25173;50.430;18.926;2023-01-10T09:58:04;98020.13;;;7.82;77.30
39487;BME280;25173;50.430;18.926;2023-01-10T10:01:08;98026.38;;;7.83;77.48
39487;BME280;25173;50.430;18.926;2023-01-10T10:04:31;98027.69;;;7.80;77.56
39487;BME280;25173;50.430;18.926;2023-01-10T10:07:34;98035.81;;;7.75;77.79
39487;BME280;25173;50.430;18.926;2023-01-10T10:10:40;98034.47;;;7.77;78.03
39487;BME280;25173;50.430;18.926;2023-01-10T10:14:01;98036.91;;;7.79;77.82
39487;BME280;25173;50.430;18.926;2023-01-10T10:27:34;98051.13;;;7.91;78.00
39487;BME280;25173;50.430;18.926;2023-01-10T10:34:00;98057.72;;;8.05;78.41
39487;BME280;25173;50.430;18.926;2023-01-10T10:37:18;98056.69;;;8.11;77.64
39487;BME280;25173;50.430;18.926;2023-01-10T10:40:23;98061.00;;;8.07;77.71
39487;BME280;25173;50.430;18.926;2023-01-10T10:43:33;98073.94;;;8.00;77.56
39487;BME280;25173;50.430;18.926;2023-01-10T10:46:35;98075.78;;;7.90;77.81
39487;BME280;25173;50.430;18.926;2023-01-10T10:53:13;98077.56;;;7.79;78.68
39487;BME280;25173;50.430;18.926;2023-01-10T10:56:16;98075.69;;;7.79;79.13
39487;BME280;25173;50.430;18.926;2023-01-10T10:59:20;98073.84;;;7.85;79.28
39487;BME280;25173;50.430;18.926;2023-01-10T11:02:27;98071.59;;;7.77;78.99
39487;BME280;25173;50.430;18.926;2023-01-10T11:05:34;98085.09;;;7.72;79.27
39487;BME280;25173;50.430;18.926;2023-01-10T11:08:38;98079.16;;;7.75;79.70
39487;BME280;25173;50.430;18.926;2023-01-10T11:11:45;98086.53;;;7.79;79.31
39487;BME280;25173;50.430;18.926;2023-01-10T11:14:48;98092.22;;;7.78;79.16
39487;BME280;25173;50.430;18.926;2023-01-10T11:18:03;98094.94;;;7.78;79.00
39487;BME280;25173;50.430;18.926;2023-01-10T11:21:11;98092.69;;;7.70;79.11
39487;BME280;25173;50.430;18.926;2023-01-10T11:24:23;98102.97;;;7.68;79.29
39487;BME280;25173;50.430;18.926;2023-01-10T11:27:28;98100.75;;;7.65;79.37
39487;BME280;25173;50.430;18.926;2023-01-10T11:30:31;98108.41;;;7.73;79.79
39487;BME280;25173;50.430;18.926;2023-01-10T11:33:33;98112.31;;;7.82;79.63
39487;BME280;25173;50.430;18.926;2023-01-10T11:36:59;98109.97;;;7.96;79.46
39487;BME280;25173;50.430;18.926;2023-01-10T11:40:21;98117.03;;;7.97;78.92
39487;BME280;25173;50.430;18.926;2023-01-10T11:43:27;98120.22;;;7.89;78.90
39487;BME280;25173;50.430;18.926;2023-01-10T11:46:28;98119.38;;;7.83;79.09
39487;BME280;25173;50.430;18.926;2023-01-10T11:49:39;98132.09;;;7.83;78.85
39487;BME280;25173;50.430;18.926;2023-01-10T11:52:43;98129.38;;;7.83;79.29
39487;BME280;25173;50.430;18.926;2023-01-10T11:55:46;98124.69;;;7.73;79.03
39487;BME280;25173;50.430;18.926;2023-01-10T11:58:47;98141.47;;;7.70;79.20
39487;BME280;25173;50.430;18.926;2023-01-10T12:02:03;98143.03;;;7.66;79.42
39487;BME280;25173;50.430;18.926;2023-01-10T12:05:18;98149.03;;;7.68;79.56
39487;BME280;25173;50.430;18.926;2023-01-10T12:08:31;98154.47;;;7.68;79.58
39487;BME280;25173;50.430;18.926;2023-01-10T12:11:33;98156.19;;;7.79;79.72
39487;BME280;25173;50.430;18.926;2023-01-10T12:14:35;98156.03;;;7.91;79.60
39487;BME280;25173;50.430;18.926;2023-01-10T12:17:36;98157.38;;;7.88;79.06
39487;BME280;25173;50.430;18.926;2023-01-10T12:20:48;98162.53;;;7.90;79.12
39487;BME280;25173;50.430;18.926;2023-01-10T12:23:50;98168.78;;;7.90;79.08
39487;BME280;25173;50.430;18.926;2023-01-10T12:26:53;98182.34;;;7.90;79.03
39487;BME280;25173;50.430;18.926;2023-01-10T12:30:10;98175.72;;;7.81;78.70
39487;BME280;25173;50.430;18.926;2023-01-10T12:33:21;98187.28;;;7.71;78.88
39487;BME280;25173;50.430;18.926;2023-01-10T12:39:39;98194.25;;;7.62;79.81
39487;BME280;25173;50.430;18.926;2023-01-10T12:49:28;98199.66;;;7.62;79.40
39487;BME280;25173;50.430;18.926;2023-01-10T12:56:01;98209.56;;;7.52;79.92
39487;BME280;25173;50.430;18.926;2023-01-10T12:59:40;98216.19;;;7.61;79.88
39487;BME280;25173;50.430;18.926;2023-01-10T13:02:45;98219.72;;;7.61;79.75
39487;BME280;25173;50.430;18.926;2023-01-10T13:05:47;98203.75;;;7.65;79.94
39487;BME280;25173;50.430;18.926;2023-01-10T13:08:49;98228.66;;;7.62;79.78
39487;BME280;25173;50.430;18.926;2023-01-10T13:12:21;98220.44;;;7.57;79.70
39487;BME280;25173;50.430;18.926;2023-01-10T13:15:49;98231.25;;;7.52;79.95
39487;BME280;25173;50.430;18.926;2023-01-10T13:22:18;98248.13;;;7.59;80.23
39487;BME280;25173;50.430;18.926;2023-01-10T13:25:30;98244.84;;;7.57;79.85
39487;BME280;25173;50.430;18.926;2023-01-10T13:28:32;98253.69;;;7.47;79.79
39487;BME280;25173;50.430;18.926;2023-01-10T13:31:34;98254.44;;;7.43;80.05
39487;BME280;25173;50.430;18.926;2023-01-10T13:34:35;98255.25;;;7.43;80.03
39487;BME280;25173;50.430;18.926;2023-01-10T13:37:37;98260.66;;;7.43;79.97
39487;BME280;25173;50.430;18.926;2023-01-10T13:40:38;98262.63;;;7.48;80.08
39487;BME280;25173;50.430;18.926;2023-01-10T13:44:11;98266.91;;;7.44;79.93
39487;BME280;25173;50.430;18.926;2023-01-10T13:47:12;98264.63;;;7.35;80.20
39487;BME280;25173;50.430;18.926;2023-01-10T13:56:39;98274.53;;;7.25;80.41
39487;BME280;25173;50.430;18.926;2023-01-10T14:03:00;98286.19;;;7.25;80.88
39487;BME280;25173;50.430;18.926;2023-01-10T14:06:01;98288.94;;;7.30;80.88
39487;BME280;25173;50.430;18.926;2023-01-10T14:09:26;98287.94;;;7.36;80.67
39487;BME280;25173;50.430;18.926;2023-01-10T14:15:28;98293.50;;;7.47;80.37
39487;BME280;25173;50.430;18.926;2023-01-10T14:18:36;98289.97;;;7.46;80.45
39487;BME280;25173;50.430;18.926;2023-01-10T14:21:42;98300.06;;;7.51;80.33
39487;BME280;25173;50.430;18.926;2023-01-10T14:24:44;98304.09;;;7.48;80.35
39487;BME280;25173;50.430;18.926;2023-01-10T14:27:51;98308.00;;;7.57;80.45
39487;BME280;25173;50.430;18.926;2023-01-10T14:34:00;98306.44;;;7.61;79.83
39487;BME280;25173;50.430;18.926;2023-01-10T14:37:09;98304.22;;;7.58;79.59
39487;BME280;25173;50.430;18.926;2023-01-10T14:40:25;98312.25;;;7.48;79.48
39487;BME280;25173;50.430;18.926;2023-01-10T14:43:36;98319.69;;;7.41;79.90
39487;BME280;25173;50.430;18.926;2023-01-10T14:46:51;98318.38;;;7.44;80.18
39487;BME280;25173;50.430;18.926;2023-01-10T14:49:52;98331.34;;;7.41;79.88
39487;BME280;25173;50.430;18.926;2023-01-10T14:52:57;98334.34;;;7.40;79.94
39487;BME280;25173;50.430;18.926;2023-01-10T14:55:58;98339.47;;;7.41;79.98
39487;BME280;25173;50.430;18.926;2023-01-10T14:58:59;98336.72;;;7.36;80.04
39487;BME280;25173;50.430;18.926;2023-01-10T15:02:02;98339.13;;;7.33;80.22
39487;BME280;25173;50.430;18.926;2023-01-10T15:05:19;98348.22;;;7.27;80.06
39487;BME280;25173;50.430;18.926;2023-01-10T15:08:26;98363.09;;;7.24;80.10
39487;BME280;25173;50.430;18.926;2023-01-10T15:11:29;98368.50;;;7.24;80.00
39487;BME280;25173;50.430;18.926;2023-01-10T15:14:32;98368.50;;;7.24;79.68
39487;BME280;25173;50.430;18.926;2023-01-10T15:17:34;98374.16;;;7.23;79.91
39487;BME280;25173;50.430;18.926;2023-01-10T15:20:36;98381.28;;;7.29;79.86
39487;BME280;25173;50.430;18.926;2023-01-10T15:23:39;98380.56;;;7.33;79.91
39487;BME280;25173;50.430;18.926;2023-01-10T15:26:40;98398.13;;;7.31;79.41
39487;BME280;25173;50.430;18.926;2023-01-10T15:29:41;98394.59;;;7.30;79.81
39487;BME280;25173;50.430;18.926;2023-01-10T15:32:44;98398.44;;;7.34;79.62
39487;BME280;25173;50.430;18.926;2023-01-10T15:35:48;98387.59;;;7.34;79.38
39487;BME280;25173;50.430;18.926;2023-01-10T15:38:48;98389.59;;;7.39;79.53
39487;BME280;25173;50.430;18.926;2023-01-10T15:41:54;98387.94;;;7.38;79.05
39487;BME280;25173;50.430;18.926;2023-01-10T15:44:57;98397.97;;;7.37;79.02
39487;BME280;25173;50.430;18.926;2023-01-10T15:51:31;98396.16;;;7.26;79.04
39487;BME280;25173;50.430;18.926;2023-01-10T15:54:32;98399.84;;;7.20;78.84
39487;BME280;25173;50.430;18.926;2023-01-10T15:57:33;98400.91;;;7.19;79.14
39487;BME280;25173;50.430;18.926;2023-01-10T16:00:35;98396.91;;;7.22;79.42
39487;BME280;25173;50.430;18.926;2023-01-10T16:03:38;98399.69;;;7.27;79.43
39487;BME280;25173;50.430;18.926;2023-01-10T16:06:43;98406.25;;;7.31;79.14
39487;BME280;25173;50.430;18.926;2023-01-10T16:10:05;98408.38;;;7.29;78.89
39487;BME280;25173;50.430;18.926;2023-01-10T16:13:09;98413.22;;;7.27;79.07
39487;BME280;25173;50.430;18.926;2023-01-10T16:16:30;98421.34;;;7.27;79.13
39487;BME280;25173;50.430;18.926;2023-01-10T16:19:31;98413.56;;;7.30;79.31
39487;BME280;25173;50.430;18.926;2023-01-10T16:22:32;98411.91;;;7.29;79.27
39487;BME280;25173;50.430;18.926;2023-01-10T16:25:37;98424.00;;;7.38;79.37
39487;BME280;25173;50.430;18.926;2023-01-10T16:28:38;98436.19;;;7.41;79.12
39487;BME280;25173;50.430;18.926;2023-01-10T16:31:39;98430.47;;;7.37;79.25
39487;BME280;25173;50.430;18.926;2023-01-10T16:34:40;98435.56;;;7.34;78.90
39487;BME280;25173;50.430;18.926;2023-01-10T16:37:41;98437.88;;;7.25;78.98
39487;BME280;25173;50.430;18.926;2023-01-10T16:40:47;98442.63;;;7.18;79.05
39487;BME280;25173;50.430;18.926;2023-01-10T16:43:48;98457.41;;;7.11;79.30
39487;BME280;25173;50.430;18.926;2023-01-10T16:46:49;98456.56;;;7.10;79.16
39487;BME280;25173;50.430;18.926;2023-01-10T16:49:52;98451.03;;;7.05;79.11
39487;BME280;25173;50.430;18.926;2023-01-10T16:52:52;98450.16;;;6.99;78.99
39487;BME280;25173;50.430;18.926;2023-01-10T16:55:53;98460.66;;;6.96;79.28
39487;BME280;25173;50.430;18.926;2023-01-10T16:58:54;98469.59;;;6.96;79.34
39487;BME280;25173;50.430;18.926;2023-01-10T17:01:56;98466.63;;;6.98;79.46
39487;BME280;25173;50.430;18.926;2023-01-10T17:04:57;98465.56;;;6.99;79.56
39487;BME280;25173;50.430;18.926;2023-01-10T17:07:58;98468.03;;;7.00;79.62
39487;BME280;25173;50.430;18.926;2023-01-10T17:11:01;98479.53;;;7.08;79.57
39487;BME280;25173;50.430;18.926;2023-01-10T17:14:03;98485.53;;;7.10;79.60
39487;BME280;25173;50.430;18.926;2023-01-10T17:17:04;98496.81;;;7.18;79.78
39487;BME280;25173;50.430;18.926;2023-01-10T17:20:05;98499.09;;;7.26;79.41
39487;BME280;25173;50.430;18.926;2023-01-10T17:23:06;98505.09;;;7.28;79.32
39487;BME280;25173;50.430;18.926;2023-01-10T17:26:11;98508.38;;;7.30;79.14
39487;BME280;25173;50.430;18.926;2023-01-10T17:29:12;98508.63;;;7.29;79.13
39487;BME280;25173;50.430;18.926;2023-01-10T17:32:13;98515.22;;;7.33;79.34